createdAt,value
2023-04-18T00:04:15.074Z,89.66
2023-04-18T00:09:17.329Z,89.71
2023-04-18T00:14:21.007Z,89.89
2023-04-18T00:19:23.626Z,89.89
2023-04-18T00:24:25.796Z,89.72
2023-04-18T00:29:28.049Z,89.48
2023-04-18T00:34:29.979Z,89.64
2023-04-18T00:39:31.767Z,89.50
2023-04-18T00:44:33.921Z,89.74
2023-04-18T00:49:35.827Z,89.60
2023-04-18T00:54:39.015Z,89.86
2023-04-18T00:59:41.341Z,89.90
2023-04-18T01:04:44.093Z,89.53
2023-04-18T01:09:46.342Z,89.59
2023-04-18T01:14:48.289Z,89.62
2023-04-18T01:19:51.576Z,89.85
2023-04-18T01:24:53.672Z,89.88
2023-04-18T01:29:55.661Z,89.84
2023-04-18T01:34:57.735Z,89.71
2023-04-18T01:40:00.134Z,89.83
2023-04-18T01:45:02.632Z,89.75
2023-04-18T01:50:05.133Z,89.69
2023-04-18T01:55:07.637Z,89.88
2023-04-18T02:00:11.478Z,89.67
2023-04-18T02:05:19.278Z,89.80
2023-04-18T02:10:21.272Z,90.01
2023-04-18T02:15:24.624Z,89.84
2023-04-18T02:20:28.579Z,89.77
2023-04-18T02:25:31.126Z,89.54
2023-04-18T02:30:32.950Z,89.49
2023-04-18T02:35:38.564Z,89.76
2023-04-18T02:40:40.649Z,89.91
2023-04-18T02:45:43.030Z,89.86
2023-04-18T02:50:45.062Z,89.80
2023-04-18T02:55:47.588Z,89.60
2023-04-18T03:00:53.149Z,89.81
2023-04-18T03:06:15.951Z,89.72
2023-04-18T03:11:18.175Z,89.58
2023-04-18T03:16:20.669Z,89.36
2023-04-18T03:21:24.083Z,89.44
2023-04-18T03:26:26.911Z,89.44
2023-04-18T03:31:29.418Z,89.51
2023-04-18T03:36:31.662Z,89.63
2023-04-18T03:41:34.118Z,89.79
2023-04-18T03:46:37.749Z,89.84
2023-04-18T03:51:48.072Z,89.61
2023-04-18T03:56:50.582Z,89.54
2023-04-18T04:01:53.575Z,89.51
2023-04-18T04:06:56.027Z,89.45
2023-04-18T04:11:57.877Z,89.53
2023-04-18T04:17:01.122Z,89.36
2023-04-18T04:22:04.019Z,89.34
2023-04-18T04:27:08.192Z,89.34
2023-04-18T04:32:11.035Z,89.48
2023-04-18T04:37:19.808Z,89.51
2023-04-18T04:42:32.373Z,89.09
2023-04-18T04:47:40.361Z,89.07
2023-04-18T04:52:42.755Z,89.02
2023-04-18T04:57:45.659Z,88.91
2023-04-18T05:03:00.106Z,88.49
2023-04-18T05:08:03.110Z,88.28
2023-04-18T05:13:05.513Z,88.30
2023-04-18T05:18:07.701Z,87.95
2023-04-18T05:23:10.081Z,87.86
2023-04-18T05:28:11.980Z,87.39
2023-04-18T05:33:13.853Z,87.13
2023-04-18T05:38:16.925Z,87.07
2023-04-18T05:43:19.787Z,86.60
2023-04-18T05:48:23.469Z,86.08
2023-04-18T05:53:25.806Z,86.39
2023-04-18T05:58:28.929Z,87.32
2023-04-18T06:03:30.891Z,86.61
2023-04-18T06:08:33.316Z,86.62
2023-04-18T06:13:37.385Z,87.03
2023-04-18T06:18:39.631Z,86.56
2023-04-18T06:23:41.682Z,85.44
2023-04-18T06:28:43.825Z,85.11
2023-04-18T06:33:45.629Z,85.68
2023-04-18T06:38:47.731Z,85.14
2023-04-18T06:44:02.086Z,83.41
2023-04-18T06:49:06.119Z,81.65
2023-04-18T06:54:08.091Z,83.04
2023-04-18T06:59:10.352Z,81.93
2023-04-18T07:04:12.643Z,80.67
2023-04-18T07:09:14.916Z,81.21
2023-04-18T07:14:17.008Z,79.61
2023-04-18T07:19:19.267Z,80.03
2023-04-18T07:24:23.570Z,79.27
2023-04-18T07:29:25.632Z,77.57
2023-04-18T07:34:30.005Z,76.35
2023-04-18T07:39:35.962Z,76.41
2023-04-18T07:44:37.964Z,75.68
2023-04-18T07:49:40.101Z,74.11
2023-04-18T07:54:41.987Z,76.60
2023-04-18T07:59:44.054Z,75.48
2023-04-18T08:04:47.480Z,74.71
2023-04-18T08:09:49.678Z,75.09
2023-04-18T08:14:51.554Z,73.79
2023-04-18T08:19:53.556Z,72.27
2023-04-18T08:25:04.288Z,72.89
2023-04-18T08:30:09.850Z,72.10
2023-04-18T08:35:11.846Z,73.35
2023-04-18T08:40:14.622Z,74.39
2023-04-18T08:45:18.691Z,70.77
2023-04-18T08:50:21.634Z,72.89
2023-04-18T08:55:23.630Z,71.09
2023-04-18T09:00:27.289Z,71.37
2023-04-18T09:05:29.838Z,71.51
2023-04-18T09:10:33.913Z,69.76
2023-04-18T09:15:35.864Z,69.04
2023-04-18T09:20:43.828Z,68.34
2023-04-18T09:25:48.140Z,65.86
2023-04-18T09:30:54.389Z,66.89
2023-04-18T09:35:57.339Z,68.68
2023-04-18T09:41:11.738Z,66.25
2023-04-18T09:46:14.650Z,67.49
2023-04-18T09:51:18.740Z,66.73
2023-04-18T09:56:32.722Z,67.00
2023-04-18T10:01:35.880Z,64.49
2023-04-18T10:06:39.902Z,66.44
2023-04-18T10:11:42.366Z,65.14
2023-04-18T10:16:49.958Z,64.28
2023-04-18T10:21:58.459Z,62.45
2023-04-18T10:27:00.328Z,61.36
2023-04-18T10:32:07.195Z,57.43
2023-04-18T10:37:09.461Z,60.24
2023-04-18T10:42:11.617Z,61.30
2023-04-18T10:47:19.824Z,61.20
2023-04-18T10:52:22.022Z,58.14
2023-04-18T10:57:24.028Z,61.06
2023-04-18T11:02:30.158Z,56.68
2023-04-18T11:07:36.992Z,58.19
2023-04-18T11:12:40.830Z,58.17
2023-04-18T11:17:44.207Z,58.13
2023-04-18T11:22:51.456Z,57.08
2023-04-18T11:27:55.905Z,60.83
2023-04-18T11:32:58.043Z,55.19
2023-04-18T11:38:00.936Z,55.98
2023-04-18T11:43:05.876Z,54.84
2023-04-18T11:48:07.765Z,54.27
2023-04-18T11:53:10.568Z,56.18
2023-04-18T11:58:12.776Z,57.95
2023-04-18T12:03:17.089Z,57.92
2023-04-18T12:08:20.643Z,53.64
2023-04-18T12:13:27.497Z,58.66
2023-04-18T12:18:30.021Z,57.57
2023-04-18T12:23:35.978Z,54.70
2023-04-18T12:28:38.809Z,54.56
2023-04-18T12:33:41.234Z,52.21
2023-04-18T12:38:43.291Z,50.18
2023-04-18T12:43:45.434Z,52.41
2023-04-18T12:48:47.519Z,54.71
2023-04-18T12:53:49.718Z,52.13
2023-04-18T12:58:51.834Z,54.53
2023-04-18T13:04:08.325Z,50.99
2023-04-18T13:09:13.450Z,57.45
2023-04-18T13:14:16.267Z,52.01
2023-04-18T13:19:18.090Z,51.11
2023-04-18T13:24:20.401Z,49.00
2023-04-18T13:29:22.689Z,48.52
2023-04-18T13:34:24.775Z,51.45
2023-04-18T13:39:26.596Z,46.14
2023-04-18T13:44:29.501Z,46.26
2023-04-18T13:49:32.678Z,44.60
2023-04-18T13:54:35.456Z,53.09
2023-04-18T13:59:42.438Z,51.05
2023-04-18T14:04:44.931Z,53.75
2023-04-18T14:09:48.391Z,50.80
2023-04-18T14:14:50.432Z,53.46
2023-04-18T14:20:11.696Z,51.66
2023-04-18T14:25:14.332Z,47.99
2023-04-18T14:30:16.749Z,61.38
2023-04-18T14:35:19.042Z,56.43
2023-04-18T14:40:22.798Z,52.32
2023-04-18T14:45:25.680Z,51.06
2023-04-18T14:50:27.810Z,52.54
2023-04-18T14:55:30.179Z,51.90
2023-04-18T15:00:34.011Z,51.73
2023-04-18T15:05:39.175Z,52.80
2023-04-18T15:10:46.561Z,51.01
2023-04-18T15:15:56.908Z,49.67
2023-04-18T15:20:59.723Z,50.87
2023-04-18T15:26:01.887Z,58.42
2023-04-18T15:31:06.173Z,55.78
2023-04-18T15:36:09.213Z,53.80
2023-04-18T15:41:11.281Z,52.80
2023-04-18T15:46:14.214Z,53.32
2023-04-18T15:51:16.098Z,52.79
2023-04-18T15:56:18.371Z,54.74
2023-04-18T16:01:20.956Z,53.72
2023-04-18T16:06:23.503Z,58.13
2023-04-18T16:11:29.039Z,56.23
2023-04-18T16:16:31.092Z,58.89
2023-04-18T16:21:33.108Z,58.73
2023-04-18T16:26:35.166Z,64.78
2023-04-18T16:31:37.335Z,57.02
2023-04-18T16:36:39.801Z,60.97
2023-04-18T16:41:41.816Z,62.27
2023-04-18T16:46:44.409Z,62.35
2023-04-18T16:51:46.707Z,64.19
2023-04-18T16:56:49.216Z,63.45
2023-04-18T17:01:51.629Z,62.81
2023-04-18T17:06:53.789Z,64.42
2023-04-18T17:11:55.724Z,64.52
2023-04-18T17:16:57.866Z,65.79
2023-04-18T17:22:00.389Z,67.13
2023-04-18T17:27:02.536Z,67.60
2023-04-18T17:32:05.210Z,68.98
2023-04-18T17:37:07.481Z,68.47
2023-04-18T17:42:09.709Z,69.01
2023-04-18T17:47:11.935Z,70.84
2023-04-18T17:52:14.024Z,70.91
2023-04-18T17:57:16.723Z,71.87
2023-04-18T18:02:19.409Z,71.35
2023-04-18T18:07:21.533Z,70.49
2023-04-18T18:12:23.428Z,72.47
2023-04-18T18:17:25.526Z,71.33
2023-04-18T18:22:28.270Z,72.82
2023-04-18T18:27:30.263Z,70.21
2023-04-18T18:32:32.472Z,67.55
2023-04-18T18:37:34.554Z,68.23
2023-04-18T18:42:36.746Z,70.09
2023-04-18T18:47:40.011Z,68.28
2023-04-18T18:52:43.250Z,67.44
2023-04-18T18:57:45.539Z,67.78
2023-04-18T19:02:47.789Z,68.19
2023-04-18T19:07:51.490Z,67.24
2023-04-18T19:12:53.468Z,68.62
2023-04-18T19:17:59.118Z,71.02
2023-04-18T19:23:01.032Z,72.79
2023-04-18T19:28:06.972Z,75.00
2023-04-18T19:33:09.685Z,76.40
2023-04-18T19:38:11.880Z,75.93
2023-04-18T19:43:13.872Z,76.79
2023-04-18T19:48:16.245Z,78.65
2023-04-18T19:53:19.223Z,80.02
2023-04-18T19:58:45.113Z,79.76
2023-04-18T20:03:48.805Z,81.23
2023-04-18T20:08:51.315Z,81.38
2023-04-18T20:13:56.769Z,80.84
2023-04-18T20:18:58.857Z,80.55
2023-04-18T20:24:01.535Z,80.91
2023-04-18T20:29:04.024Z,81.27
2023-04-18T20:34:06.993Z,81.50
2023-04-18T20:39:09.490Z,81.32
2023-04-18T20:44:13.851Z,82.99
2023-04-18T20:49:16.557Z,83.38
2023-04-18T20:54:18.849Z,83.19
2023-04-18T20:59:21.490Z,83.28
2023-04-18T21:04:23.934Z,83.61
2023-04-18T21:09:26.688Z,83.64
2023-04-18T21:14:36.058Z,84.30
2023-04-18T21:19:38.213Z,83.96
2023-04-18T21:24:40.667Z,83.62
2023-04-18T21:29:42.921Z,83.85
2023-04-18T21:34:44.986Z,84.39
2023-04-18T21:39:47.237Z,84.73
2023-04-18T21:44:49.637Z,84.81
2023-04-18T21:49:56.679Z,83.29
2023-04-18T21:54:59.962Z,82.71
2023-04-18T22:00:02.440Z,83.62
2023-04-18T22:05:13.389Z,83.65
2023-04-18T22:10:16.556Z,83.45
2023-04-18T22:15:18.359Z,84.18
2023-04-18T22:20:21.554Z,83.62
2023-04-18T22:25:23.341Z,83.38
2023-04-18T22:30:25.575Z,83.75
2023-04-18T22:35:27.945Z,83.72
2023-04-18T22:40:29.991Z,83.68
2023-04-18T22:45:33.794Z,83.36
2023-04-18T22:50:37.913Z,84.88
2023-04-18T22:55:44.352Z,85.79
2023-04-18T23:00:46.824Z,86.24
2023-04-18T23:05:48.869Z,85.73
2023-04-18T23:10:53.206Z,85.88
2023-04-18T23:16:01.403Z,85.71
2023-04-18T23:21:03.700Z,85.34
2023-04-18T23:26:13.301Z,86.23
2023-04-18T23:31:15.625Z,85.06
2023-04-18T23:36:17.758Z,85.33
2023-04-18T23:41:20.422Z,85.55
2023-04-18T23:46:22.884Z,85.28
2023-04-18T23:51:27.777Z,86.49
2023-04-18T23:56:29.803Z,86.57
